Time;durP1;ratioP1;P1;durP2;ratioP2;P2;SDS_P1;SDS_P2;PMS_P1;PMS_P2;Temp;Humidity;BMP_temperature;BMP_pressure;BME280_temperature;BME280_humidity;BME280_pressure;Samples;Min_cycle;Max_cycle;Signal;HPM_P1;HPM_P2
2023/01/27 00:04:22;;;;;;;16.33;9.07;;;;;;;;;;10432803;28;20433;-78
2023/01/27 00:09:22;;;;;;;20.20;10.32;;;;;;;;;;10437225;28;20071;-78
2023/01/27 00:14:22;;;;;;;18.33;10.30;;;;;;;;;;10428304;28;20037;-80
2023/01/27 00:19:23;;;;;;;15.98;9.25;;;;;;;;;;10429963;28;20103;-79
2023/01/27 00:24:35;;;;;;;17.17;9.32;;;;;;;;;;10427463;28;20029;-78
2023/01/27 00:29:37;;;;;;;17.58;9.05;;;;;;;;;;10458932;28;20059;-80
2023/01/27 00:34:38;;;;;;;19.38;9.48;;;;;;;;;;10453135;28;20032;-77
2023/01/27 00:39:38;;;;;;;18.65;9.05;;;;;;;;;;10450673;28;20036;-78
2023/01/27 00:45:47;;;;;;;16.70;9.02;;;;;;;;;;10461469;28;20037;-84
2023/01/27 00:49:59;;;;;;;19.48;9.88;;;;;;;;;;10438807;28;20040;-80
2023/01/27 00:54:59;;;;;;;17.00;10.13;;;;;;;;;;10433024;28;20062;-81
2023/01/27 01:00:00;;;;;;;19.38;9.38;;;;;;;;;;10431198;28;20103;-80
2023/01/27 01:05:00;;;;;;;20.92;10.30;;;;;;;;;;10428062;28;20053;-79
2023/01/27 01:10:02;;;;;;;21.70;10.48;;;;;;;;;;10427713;28;20048;-79
2023/01/27 01:15:04;;;;;;;23.15;10.43;;;;;;;;;;10414651;28;20056;-80
2023/01/27 01:20:05;;;;;;;21.08;10.32;;;;;;;;;;10437089;28;20398;-82
2023/01/27 01:25:06;;;;;;;19.30;10.20;;;;;;;;;;10437608;28;20029;-81
2023/01/27 01:30:09;;;;;;;18.90;10.27;;;;;;;;;;10431373;28;20123;-76
2023/01/27 01:35:09;;;;;;;22.50;10.52;;;;;;;;;;10442120;28;20120;-80
2023/01/27 01:40:15;;;;;;;22.27;11.30;;;;;;;;;;10448871;28;20137;-82
2023/01/27 01:45:35;;;;;;;22.88;11.45;;;;;;;;;;10469833;28;20045;-75
2023/01/27 01:50:37;;;;;;;18.88;10.50;;;;;;;;;;10467560;28;20034;-76
2023/01/27 01:55:39;;;;;;;;;;;;;;;;;;10431900;28;20126;-75
2023/01/27 02:00:39;;;;;;;19.05;10.10;;;;;;;;;;10464394;28;20594;-80
2023/01/27 02:05:43;;;;;;;21.70;11.43;;;;;;;;;;10457703;28;20077;-76
2023/01/27 02:10:44;;;;;;;20.17;10.90;;;;;;;;;;10435192;28;20045;-79
2023/01/27 02:15:44;;;;;;;21.77;10.45;;;;;;;;;;10466498;28;20040;-76
2023/01/27 02:20:46;;;;;;;23.00;10.80;;;;;;;;;;10473825;28;20373;-77
2023/01/27 02:25:47;;;;;;;22.42;11.00;;;;;;;;;;10437227;28;20091;-79
2023/01/27 02:30:48;;;;;;;24.30;11.30;;;;;;;;;;10483056;28;20048;-79
2023/01/27 02:35:51;;;;;;;27.10;11.48;;;;;;;;;;10471166;28;20043;-76
2023/01/27 02:40:54;;;;;;;24.85;12.00;;;;;;;;;;10453738;28;20046;-80
2023/01/27 02:45:55;;;;;;;23.58;11.90;;;;;;;;;;10450444;28;20327;-76
2023/01/27 02:50:56;;;;;;;25.52;11.10;;;;;;;;;;10452599;28;20041;-79
2023/01/27 02:55:58;;;;;;;23.73;11.52;;;;;;;;;;10402514;28;20044;-78
2023/01/27 03:00:58;;;;;;;25.92;12.25;;;;;;;;;;10419137;28;20051;-77
2023/01/27 03:05:58;;;;;;;24.88;11.93;;;;;;;;;;10412744;28;20080;-82
2023/01/27 03:10:59;;;;;;;25.38;12.73;;;;;;;;;;10397542;28;20037;-83
2023/01/27 03:21:19;;;;;;;20.48;10.65;;;;;;;;;;10422623;28;20040;-80
2023/01/27 03:26:20;;;;;;;18.90;8.90;;;;;;;;;;10440261;28;20489;-78
2023/01/27 03:31:25;;;;;;;18.25;9.27;;;;;;;;;;10438909;28;20057;-79
2023/01/27 03:47:12;;;;;;;17.38;8.48;;;;;;;;;;10428985;28;20049;-78
2023/01/27 03:52:12;;;;;;;15.25;8.52;;;;;;;;;;10436409;28;20063;-80
2023/01/27 03:57:13;;;;;;;19.50;10.23;;;;;;;;;;10431581;28;20484;-78
2023/01/27 04:07:36;;;;;;;17.40;8.00;;;;;;;;;;10450659;28;20063;-79
2023/01/27 04:12:36;;;;;;;15.63;8.48;;;;;;;;;;10450506;28;20048;-78
2023/01/27 04:17:40;;;;;;;14.18;8.30;;;;;;;;;;10468612;28;20526;-77
2023/01/27 04:22:40;;;;;;;16.15;8.13;;;;;;;;;;10491409;28;20408;-76
2023/01/27 04:27:42;;;;;;;14.15;8.02;;;;;;;;;;10434831;28;20115;-76
2023/01/27 04:32:42;;;;;;;13.60;7.35;;;;;;;;;;10485793;28;20052;-76
2023/01/27 04:37:44;;;;;;;15.13;8.02;;;;;;;;;;10449058;28;20037;-78
2023/01/27 04:42:44;;;;;;;12.80;7.00;;;;;;;;;;10446424;28;20041;-77
2023/01/27 04:47:48;;;;;;;14.77;8.15;;;;;;;;;;10424682;28;20041;-78
2023/01/27 04:52:48;;;;;;;17.10;9.32;;;;;;;;;;10445256;28;20177;-77
2023/01/27 04:57:48;;;;;;;17.67;8.43;;;;;;;;;;10435980;28;20158;-77
2023/01/27 05:02:49;;;;;;;18.47;9.40;;;;;;;;;;10452240;28;20080;-78
2023/01/27 05:07:49;;;;;;;14.77;8.77;;;;;;;;;;10453373;28;20314;-76
2023/01/27 05:12:50;;;;;;;17.13;8.18;;;;;;;;;;10465393;28;20299;-81
2023/01/27 05:17:50;;;;;;;13.13;7.90;;;;;;;;;;10471424;28;20036;-77
2023/01/27 05:23:33;;;;;;;14.82;8.07;;;;;;;;;;10452445;28;20029;-76
2023/01/27 05:28:13;;;;;;;17.27;8.70;;;;;;;;;;10454150;28;20043;-79
2023/01/27 05:33:14;;;;;;;15.30;8.23;;;;;;;;;;10435347;28;20047;-81
2023/01/27 05:38:15;;;;;;;16.75;8.38;;;;;;;;;;10427813;28;20040;-80
2023/01/27 05:43:16;;;;;;;15.80;8.20;;;;;;;;;;10443916;28;20135;-77
2023/01/27 05:48:17;;;;;;;15.38;8.35;;;;;;;;;;10418630;28;20045;-77
2023/01/27 05:53:17;;;;;;;18.63;8.90;;;;;;;;;;10443912;28;20033;-80
2023/01/27 05:58:18;;;;;;;15.95;8.75;;;;;;;;;;10416487;28;20034;-77
2023/01/27 06:03:19;;;;;;;17.15;8.35;;;;;;;;;;10437361;28;20040;-77
2023/01/27 06:08:21;;;;;;;16.58;8.60;;;;;;;;;;10423243;28;20045;-80
2023/01/27 06:13:22;;;;;;;15.98;8.65;;;;;;;;;;10435746;28;20132;-77
2023/01/27 06:18:22;;;;;;;18.15;8.88;;;;;;;;;;10431038;28;20065;-84
2023/01/27 06:23:23;;;;;;;17.35;8.90;;;;;;;;;;10432084;28;20127;-80
2023/01/27 06:28:24;;;;;;;20.90;8.65;;;;;;;;;;10436931;28;20045;-81
2023/01/27 06:33:24;;;;;;;17.83;8.50;;;;;;;;;;10414770;28;20037;-79
2023/01/27 06:38:24;;;;;;;19.20;9.30;;;;;;;;;;10446481;28;20119;-79
2023/01/27 06:43:25;;;;;;;18.27;9.13;;;;;;;;;;10463280;28;20089;-79
2023/01/27 06:48:27;;;;;;;19.00;9.55;;;;;;;;;;10439369;28;20354;-75
2023/01/27 06:53:28;;;;;;;20.80;10.25;;;;;;;;;;10445803;28;20045;-75
2023/01/27 06:58:28;;;;;;;18.25;8.95;;;;;;;;;;10469971;28;20024;-77
2023/01/27 07:03:29;;;;;;;14.95;8.18;;;;;;;;;;10423589;28;20037;-76
2023/01/27 07:08:29;;;;;;;19.48;8.55;;;;;;;;;;10449536;28;20048;-80
2023/01/27 07:13:32;;;;;;;;;;;;;;;;;;10401922;28;20033;-79
2023/01/27 07:18:33;;;;;;;17.33;8.93;;;;;;;;;;10426608;28;19923;-81
2023/01/27 07:23:33;;;;;;;17.95;8.95;;;;;;;;;;10434246;28;20029;-75
2023/01/27 07:28:33;;;;;;;18.88;8.40;;;;;;;;;;10413785;28;20368;-82
2023/01/27 07:33:35;;;;;;;17.50;8.98;;;;;;;;;;10434505;28;20036;-81
2023/01/27 07:38:37;;;;;;;19.25;9.25;;;;;;;;;;10431522;28;20044;-82
2023/01/27 07:43:38;;;;;;;19.00;9.15;;;;;;;;;;10447734;28;20040;-83
2023/01/27 07:48:41;;;;;;;;;;;;;;;;;;10438342;28;20057;-80
2023/01/27 07:53:43;;;;;;;16.33;7.90;;;;;;;;;;10419731;28;20319;-80
2023/01/27 07:58:44;;;;;;;15.02;8.13;;;;;;;;;;10434348;28;20120;-81
2023/01/27 08:03:44;;;;;;;19.90;9.23;;;;;;;;;;10415548;28;20056;-81
2023/01/27 08:08:45;;;;;;;15.65;8.38;;;;;;;;;;10427766;28;20029;-82
2023/01/27 08:13:45;;;;;;;18.85;8.55;;;;;;;;;;10455264;28;20035;-79
2023/01/27 08:18:45;;;;;;;16.15;8.10;;;;;;;;;;10476090;28;20037;-81
2023/01/27 08:23:46;;;;;;;15.48;8.10;;;;;;;;;;10447325;28;20021;-83
2023/01/27 08:28:47;;;;;;;16.75;7.82;;;;;;;;;;10448606;28;20131;-80
2023/01/27 08:33:52;;;;;;;15.02;8.07;;;;;;;;;;10448991;28;20086;-81
2023/01/27 08:38:54;;;;;;;17.48;7.60;;;;;;;;;;10438524;28;20097;-85
2023/01/27 08:43:56;;;;;;;17.27;7.43;;;;;;;;;;10466651;28;20056;-83
2023/01/27 08:48:56;;;;;;;14.15;6.97;;;;;;;;;;10516397;28;20049;-78
2023/01/27 08:53:57;;;;;;;15.23;7.32;;;;;;;;;;10463985;28;20119;-80
2023/01/27 08:59:01;;;;;;;23.45;12.85;;;;;;;;;;10428054;28;20521;-79
2023/01/27 09:04:03;;;;;;;14.75;7.82;;;;;;;;;;10451254;28;20030;-80
2023/01/27 09:09:09;;;;;;;16.02;8.32;;;;;;;;;;10443430;28;20080;-80
2023/01/27 09:14:10;;;;;;;15.52;8.02;;;;;;;;;;10487868;28;20036;-83
2023/01/27 09:19:11;;;;;;;13.95;6.88;;;;;;;;;;10512329;28;20052;-77
2023/01/27 09:24:14;;;;;;;14.90;7.47;;;;;;;;;;10460837;28;20037;-80
2023/01/27 09:29:14;;;;;;;15.90;7.22;;;;;;;;;;10449485;28;20711;-82
2023/01/27 09:34:16;;;;;;;14.48;7.10;;;;;;;;;;10444165;28;20076;-82
2023/01/27 09:39:17;;;;;;;12.60;7.32;;;;;;;;;;10448409;28;20026;-82
2023/01/27 09:44:31;;;;;;;14.57;7.13;;;;;;;;;;10441912;28;20079;-81
2023/01/27 09:49:32;;;;;;;15.90;7.53;;;;;;;;;;10443200;28;20048;-81
2023/01/27 09:54:45;;;;;;;11.82;6.47;;;;;;;;;;10443301;28;20564;-82
2023/01/27 09:59:48;;;;;;;15.45;6.93;;;;;;;;;;10442843;28;20120;-79
2023/01/27 10:04:48;;;;;;;;;;;;;;;;;;10437309;28;20328;-80
2023/01/27 10:09:54;;;;;;;12.95;7.32;;;;;;;;;;10434605;28;19921;-81
2023/01/27 10:14:55;;;;;;;10.02;6.10;;;;;;;;;;10434976;28;20563;-81
2023/01/27 10:20:14;;;;;;;15.20;7.20;;;;;;;;;;10439666;28;20116;-80
2023/01/27 10:25:33;;;;;;;13.60;7.05;;;;;;;;;;10446001;28;20492;-80
2023/01/27 10:30:34;;;;;;;13.38;6.97;;;;;;;;;;10421809;28;20071;-81
2023/01/27 10:35:38;;;;;;;10.73;6.28;;;;;;;;;;10450346;28;20087;-81
2023/01/27 10:40:50;;;;;;;13.70;6.85;;;;;;;;;;10427107;28;20050;-81
2023/01/27 10:46:00;;;;;;;12.48;6.40;;;;;;;;;;10451160;28;20038;-81
2023/01/27 10:51:09;;;;;;;10.55;6.07;;;;;;;;;;10435050;28;20041;-84
2023/01/27 10:56:33;;;;;;;10.02;5.40;;;;;;;;;;10445392;28;20137;-82
2023/01/27 11:01:36;;;;;;;11.32;6.25;;;;;;;;;;10432467;28;20464;-82
2023/01/27 11:06:38;;;;;;;10.23;5.50;;;;;;;;;;10433478;28;20071;-82
2023/01/27 11:11:44;;;;;;;9.15;5.30;;;;;;;;;;10439174;28;20123;-82
2023/01/27 11:16:50;;;;;;;10.07;4.80;;;;;;;;;;10459433;28;20095;-80
2023/01/27 11:21:52;;;;;;;9.40;5.35;;;;;;;;;;10448500;28;20492;-83
2023/01/27 11:26:57;;;;;;;7.10;4.80;;;;;;;;;;10472445;28;20052;-82
2023/01/27 11:32:22;;;;;;;12.15;5.63;;;;;;;;;;10471505;28;20033;-84
2023/01/27 11:37:28;;;;;;;10.10;5.13;;;;;;;;;;10455793;28;20041;-81
2023/01/27 11:42:32;;;;;;;10.55;5.82;;;;;;;;;;10476215;28;20060;-77
2023/01/27 11:47:35;;;;;;;7.55;4.22;;;;;;;;;;10538696;28;20514;-81
2023/01/27 11:52:35;;;;;;;8.20;4.60;;;;;;;;;;10477512;28;20577;-79
2023/01/27 11:57:40;;;;;;;8.43;4.90;;;;;;;;;;10483285;28;20033;-81
2023/01/27 12:02:41;;;;;;;9.23;5.15;;;;;;;;;;10476905;28;20408;-81
2023/01/27 12:07:53;;;;;;;10.95;5.22;;;;;;;;;;10498987;28;20115;-83
2023/01/27 12:12:55;;;;;;;26.67;6.15;;;;;;;;;;10521713;28;20418;-82
2023/01/27 12:17:58;;;;;;;8.20;5.00;;;;;;;;;;10528655;28;20365;-78
2023/01/27 12:23:05;;;;;;;9.73;5.00;;;;;;;;;;10514495;28;20055;-81
2023/01/27 12:28:14;;;;;;;11.63;5.95;;;;;;;;;;10476208;28;20048;-84
2023/01/27 12:33:19;;;;;;;9.52;6.00;;;;;;;;;;10482513;28;20464;-81
2023/01/27 12:38:21;;;;;;;10.82;5.47;;;;;;;;;;10466373;28;20400;-83
2023/01/27 12:43:23;;;;;;;9.45;5.72;;;;;;;;;;10485352;28;20028;-85
2023/01/27 12:48:25;;;;;;;10.32;5.97;;;;;;;;;;10499574;28;20102;-81
2023/01/27 12:53:26;;;;;;;10.30;5.75;;;;;;;;;;10459392;28;20142;-84
2023/01/27 12:58:27;;;;;;;10.00;5.68;;;;;;;;;;10472428;28;20133;-82
2023/01/27 13:03:28;;;;;;;8.02;5.20;;;;;;;;;;10460044;28;20195;-80
2023/01/27 13:08:31;;;;;;;8.88;5.40;;;;;;;;;;10490625;28;20041;-81
2023/01/27 13:13:32;;;;;;;8.00;4.97;;;;;;;;;;10459907;28;20032;-81
2023/01/27 13:18:34;;;;;;;14.27;5.60;;;;;;;;;;10457387;28;20037;-84
2023/01/27 13:23:36;;;;;;;9.23;5.07;;;;;;;;;;10468868;28;20408;-82
2023/01/27 13:28:46;;;;;;;10.07;5.38;;;;;;;;;;10448402;28;20078;-84
2023/01/27 13:33:53;;;;;;;8.88;5.13;;;;;;;;;;10482030;28;20037;-82
2023/01/27 13:39:02;;;;;;;8.27;5.20;;;;;;;;;;10479668;28;20365;-83
2023/01/27 13:44:10;;;;;;;7.65;5.28;;;;;;;;;;10450632;28;20096;-86
2023/01/27 13:49:16;;;;;;;6.97;4.47;;;;;;;;;;10480038;28;20048;-81
2023/01/27 13:54:16;;;;;;;7.20;4.15;;;;;;;;;;10479528;28;20040;-84
2023/01/27 13:59:35;;;;;;;7.03;4.63;;;;;;;;;;10467461;28;20043;-83
2023/01/27 14:04:39;;;;;;;8.68;5.30;;;;;;;;;;10487287;28;20029;-82
2023/01/27 14:09:48;;;;;;;9.93;6.03;;;;;;;;;;10503246;28;20056;-83
2023/01/27 14:15:02;;;;;;;7.18;4.75;;;;;;;;;;10540315;28;20020;-83
2023/01/27 14:20:03;;;;;;;;;;;;;;;;;;10510112;28;20044;-85
2023/01/27 14:25:13;;;;;;;6.78;4.22;;;;;;;;;;10461657;28;19940;-83
2023/01/27 14:30:18;;;;;;;8.48;4.97;;;;;;;;;;10479302;28;20032;-82
2023/01/27 14:35:18;;;;;;;7.57;4.50;;;;;;;;;;10478532;28;20036;-80
2023/01/27 14:40:25;;;;;;;5.90;4.03;;;;;;;;;;10490124;28;20024;-82
2023/01/27 14:45:30;;;;;;;6.82;4.93;;;;;;;;;;10468295;28;20048;-79
2023/01/27 14:50:51;;;;;;;7.13;4.68;;;;;;;;;;10481279;28;20083;-81
2023/01/27 14:55:57;;;;;;;6.15;4.50;;;;;;;;;;10479447;28;20044;-81
2023/01/27 15:01:03;;;;;;;6.95;4.82;;;;;;;;;;10492610;28;20018;-82
2023/01/27 15:06:15;;;;;;;6.95;4.90;;;;;;;;;;10517351;28;20045;-84
2023/01/27 15:11:19;;;;;;;7.55;4.78;;;;;;;;;;10496785;28;20029;-80
2023/01/27 15:16:29;;;;;;;7.22;4.70;;;;;;;;;;10474180;28;20108;-84
2023/01/27 15:21:40;;;;;;;8.07;4.90;;;;;;;;;;10459891;28;20035;-82
2023/01/27 15:26:41;;;;;;;8.40;4.78;;;;;;;;;;10473693;28;20270;-82
2023/01/27 15:31:43;;;;;;;7.78;5.05;;;;;;;;;;10459751;28;20708;-82
2023/01/27 15:37:10;;;;;;;8.05;4.93;;;;;;;;;;10479017;28;20142;-82
2023/01/27 15:42:11;;;;;;;9.50;5.38;;;;;;;;;;10491732;28;20033;-80
2023/01/27 15:47:11;;;;;;;9.00;5.43;;;;;;;;;;10510538;28;20032;-80
2023/01/27 15:52:26;;;;;;;9.73;5.25;;;;;;;;;;10508459;28;20552;-80
2023/01/27 15:57:37;;;;;;;9.38;6.05;;;;;;;;;;10463306;28;20040;-80
2023/01/27 16:02:43;;;;;;;10.55;5.82;;;;;;;;;;10488908;28;20090;-80
2023/01/27 16:07:47;;;;;;;12.32;6.28;;;;;;;;;;10480195;28;20093;-80
2023/01/27 16:12:48;;;;;;;11.10;5.85;;;;;;;;;;10477156;28;20036;-86
2023/01/27 16:17:54;;;;;;;13.23;7.15;;;;;;;;;;10461232;28;20041;-81
2023/01/27 16:23:05;;;;;;;12.60;6.25;;;;;;;;;;10455865;28;20048;-82
2023/01/27 16:28:25;;;;;;;11.13;5.68;;;;;;;;;;10477052;28;20045;-80
2023/01/27 16:33:26;;;;;;;14.63;7.15;;;;;;;;;;10455617;28;20049;-80
2023/01/27 16:38:35;;;;;;;12.85;7.18;;;;;;;;;;10485528;28;20040;-80
2023/01/27 16:43:44;;;;;;;12.90;6.97;;;;;;;;;;10466269;28;20025;-80
2023/01/27 16:48:46;;;;;;;14.55;7.72;;;;;;;;;;10457945;28;20142;-82
2023/01/27 16:53:49;;;;;;;14.52;7.68;;;;;;;;;;10476248;28;20098;-80
2023/01/27 16:58:50;;;;;;;13.50;7.50;;;;;;;;;;10461890;28;20033;-80
2023/01/27 17:03:56;;;;;;;15.05;8.55;;;;;;;;;;10458680;28;20402;-82
2023/01/27 17:08:56;;;;;;;14.80;7.38;;;;;;;;;;10479679;28;20041;-82
2023/01/27 17:13:58;;;;;;;13.05;6.63;;;;;;;;;;10480560;28;20427;-81
2023/01/27 17:19:03;;;;;;;13.75;7.03;;;;;;;;;;10484992;28;20105;-78
2023/01/27 17:24:14;;;;;;;13.10;7.75;;;;;;;;;;10453222;28;20074;-78
2023/01/27 17:29:16;;;;;;;13.80;7.10;;;;;;;;;;10482363;28;20189;-80
2023/01/27 17:34:18;;;;;;;12.57;7.22;;;;;;;;;;10480085;28;20039;-81
2023/01/27 17:39:23;;;;;;;14.32;7.53;;;;;;;;;;10487985;28;20040;-79
2023/01/27 17:44:23;;;;;;;14.07;6.82;;;;;;;;;;10516615;28;20029;-79
2023/01/27 17:49:25;;;;;;;15.05;7.80;;;;;;;;;;10494409;28;20186;-79
2023/01/27 17:54:31;;;;;;;10.93;6.22;;;;;;;;;;10484643;28;20107;-80
2023/01/27 17:59:32;;;;;;;11.75;6.35;;;;;;;;;;10525331;28;20040;-78
2023/01/27 18:04:37;;;;;;;15.27;7.60;;;;;;;;;;10496128;28;20083;-79
2023/01/27 18:09:45;;;;;;;10.38;5.88;;;;;;;;;;10485107;28;20045;-78
2023/01/27 18:14:45;;;;;;;8.95;5.93;;;;;;;;;;10489336;28;20039;-85
2023/01/27 18:19:50;;;;;;;12.30;6.13;;;;;;;;;;10511150;28;20040;-80
2023/01/27 18:24:59;;;;;;;9.70;5.28;;;;;;;;;;10497524;28;20036;-80
2023/01/27 18:30:26;;;;;;;10.15;5.50;;;;;;;;;;10488845;28;20119;-82
2023/01/27 18:35:27;;;;;;;9.25;5.97;;;;;;;;;;10473196;28;20129;-79
2023/01/27 18:40:29;;;;;;;10.15;5.03;;;;;;;;;;10469092;28;20070;-78
2023/01/27 18:45:30;;;;;;;6.13;3.90;;;;;;;;;;10478439;28;20093;-79
2023/01/27 18:50:30;;;;;;;6.38;3.45;;;;;;;;;;10461320;28;20067;-82
2023/01/27 18:55:31;;;;;;;6.55;4.28;;;;;;;;;;10486038;28;20115;-83
2023/01/27 19:00:36;;;;;;;7.97;4.15;;;;;;;;;;10479987;28;20036;-80
2023/01/27 19:05:37;;;;;;;5.22;3.78;;;;;;;;;;10465859;28;20049;-79
2023/01/27 19:10:37;;;;;;;6.57;4.15;;;;;;;;;;10486538;28;20036;-79
2023/01/27 19:15:39;;;;;;;7.57;4.13;;;;;;;;;;10483490;28;20037;-80
2023/01/27 19:20:42;;;;;;;6.22;4.07;;;;;;;;;;10467630;28;20045;-84
2023/01/27 19:25:44;;;;;;;6.13;3.88;;;;;;;;;;10464486;28;20044;-81
2023/01/27 19:30:45;;;;;;;5.78;3.50;;;;;;;;;;10478965;28;20449;-83
2023/01/27 19:35:47;;;;;;;6.60;3.85;;;;;;;;;;10478396;28;20036;-80
2023/01/27 19:40:48;;;;;;;6.75;3.63;;;;;;;;;;10489696;28;20037;-78
2023/01/27 19:45:51;;;;;;;5.95;3.65;;;;;;;;;;10482053;28;20041;-79
2023/01/27 19:50:51;;;;;;;5.18;3.28;;;;;;;;;;10442555;28;20396;-80
2023/01/27 19:55:53;;;;;;;6.40;4.05;;;;;;;;;;10468599;28;20028;-82
2023/01/27 20:00:54;;;;;;;6.10;3.60;;;;;;;;;;10447181;28;20033;-82
2023/01/27 20:05:54;;;;;;;6.28;4.18;;;;;;;;;;10463410;28;20067;-82
2023/01/27 20:10:55;;;;;;;5.47;3.38;;;;;;;;;;10479864;28;20040;-80
2023/01/27 20:15:56;;;;;;;4.70;3.45;;;;;;;;;;10493990;28;20047;-84
2023/01/27 20:20:56;;;;;;;5.25;3.45;;;;;;;;;;10479648;28;20040;-81
2023/01/27 20:25:57;;;;;;;4.28;3.08;;;;;;;;;;10532453;28;20024;-86
2023/01/27 20:30:57;;;;;;;4.47;3.15;;;;;;;;;;10551620;28;20089;-84
2023/01/27 20:35:58;;;;;;;5.05;3.15;;;;;;;;;;10522583;28;20037;-78
2023/01/27 20:41:03;;;;;;;4.60;2.95;;;;;;;;;;10501571;28;20853;-80
2023/01/27 20:46:05;;;;;;;6.30;4.00;;;;;;;;;;10517665;28;20032;-80
2023/01/27 20:51:06;;;;;;;5.53;4.05;;;;;;;;;;10510410;28;20407;-80
2023/01/27 20:56:07;;;;;;;4.45;3.08;;;;;;;;;;10527546;28;20376;-77
2023/01/27 21:01:12;;;;;;;6.03;3.20;;;;;;;;;;10507788;28;20043;-78
2023/01/27 21:06:14;;;;;;;5.45;3.25;;;;;;;;;;10520358;28;20110;-77
2023/01/27 21:11:17;;;;;;;6.22;3.88;;;;;;;;;;10479651;28;20552;-80
2023/01/27 21:16:17;;;;;;;4.83;3.43;;;;;;;;;;10479042;28;20514;-78
2023/01/27 21:21:20;;;;;;;5.20;3.58;;;;;;;;;;10471620;28;20090;-78
2023/01/27 21:26:21;;;;;;;7.00;4.25;;;;;;;;;;10460783;28;20124;-79
2023/01/27 21:31:23;;;;;;;6.30;3.80;;;;;;;;;;10451115;28;20038;-79
2023/01/27 21:36:23;;;;;;;6.47;4.15;;;;;;;;;;10474036;28;20032;-79
2023/01/27 21:46:43;;;;;;;5.97;4.32;;;;;;;;;;10472315;28;20040;-83
2023/01/27 21:51:43;;;;;;;5.88;3.70;;;;;;;;;;10460167;28;20052;-79
2023/01/27 21:56:43;;;;;;;7.30;4.38;;;;;;;;;;10483077;28;20128;-79
2023/01/27 22:01:44;;;;;;;6.43;4.10;;;;;;;;;;10497166;28;20096;-79
2023/01/27 22:06:44;;;;;;;10.88;5.38;;;;;;;;;;10496622;28;20650;-79
2023/01/27 22:11:45;;;;;;;6.35;4.35;;;;;;;;;;10474803;28;20032;-77
2023/01/27 22:16:45;;;;;;;5.95;3.80;;;;;;;;;;10469402;28;20117;-79
2023/01/27 22:21:45;;;;;;;6.28;4.10;;;;;;;;;;10471204;28;20094;-78
2023/01/27 22:26:46;;;;;;;6.00;4.10;;;;;;;;;;10461408;28;20106;-80
2023/01/27 22:31:47;;;;;;;8.23;3.90;;;;;;;;;;10453798;28;20526;-80
2023/01/27 22:36:50;;;;;;;7.15;4.40;;;;;;;;;;10471567;28;20488;-79
2023/01/27 22:41:51;;;;;;;7.00;4.22;;;;;;;;;;10467478;28;20378;-80
2023/01/27 22:46:52;;;;;;;5.70;3.55;;;;;;;;;;10472497;28;20045;-78
2023/01/27 22:51:53;;;;;;;6.38;3.85;;;;;;;;;;10459904;28;20056;-78
2023/01/27 22:56:54;;;;;;;5.85;4.18;;;;;;;;;;10482261;28;20044;-78
2023/01/27 23:01:54;;;;;;;6.55;4.35;;;;;;;;;;10473917;28;20377;-78
2023/01/27 23:06:55;;;;;;;7.80;4.80;;;;;;;;;;10506313;22;20048;-77
2023/01/27 23:11:55;;;;;;;6.15;4.32;;;;;;;;;;10505832;28;20066;-79
2023/01/27 23:16:57;;;;;;;7.45;4.18;;;;;;;;;;10538832;28;20047;-78
2023/01/27 23:21:57;;;;;;;5.68;4.15;;;;;;;;;;10540798;28;20124;-80
2023/01/27 23:26:58;;;;;;;6.28;4.07;;;;;;;;;;10504091;28;20078;-77
2023/01/27 23:31:58;;;;;;;6.13;4.32;;;;;;;;;;10525725;28;20040;-77
2023/01/27 23:36:58;;;;;;;6.53;4.50;;;;;;;;;;10493702;28;20119;-79
2023/01/27 23:41:59;;;;;;;7.32;4.57;;;;;;;;;;10484308;28;20048;-80
2023/01/27 23:46:59;;;;;;;8.48;4.60;;;;;;;;;;10475658;28;20492;-82
2023/01/27 23:52:01;;;;;;;6.85;4.22;;;;;;;;;;10476580;28;20052;-81
2023/01/27 23:57:06;;;;;;;6.40;4.55;;;;;;;;;;10487849;28;20033;-81
